Anderson, California
Current Conditions -  °F | °C
As of 12:20 AM on Thursday 18 Dec 2014 (Local Time) from KRDD Reporting Station
Light Rain Light Rain  
Wind Chill: 47°   Ceiling: 2200
Heat Index: 49°   Visibility: 6mi
Dew Point: 47°   Wind: 6mph
Humidity: 93%   Direction: 200°SSW
Pressure: 30.09"   Gusts: NA
Location:  40.45°N, 122.3°W
Report Text: KRDD 180820Z AUTO 20005KT 6SM -RA BR SCT011 BKN022 OVC041 09/08 A3009 RMK AO2 RAE0755B12 P0001 T00940083 $
Loading
Personal Weather Stations






























Interactive Weather Map New forecast layout! Learn more

10-Day Weather Forecast

Advertisements
Track Severe Weather on mobile